Lady Nur — 3FFE2 — position and weather

sailwx.info

Track history (hours):
 
Tides and Currents Weather Stations Pressure Air Temp Water Temp Dewpoint Dewpoint Depression Visibility Wind Speed Wind Dir Waves Ship Positions

Lady Nur

Last reported at 2014-Nov-13 10:33 UTC. Time now 2014-Nov-24 20:10 UTC.
Position N 37°34' E 024°06'.
Warning: this ship's position is 11 days out of date.

Length 82 m; draft 5.5 m.

Type: Cargo ship. MMSI: 373237000.

Date/timePositionNaut miles runAvg speedWind from/ knotsBaromVisibWave heightAir tempDewpointWater temp
2014-Nov-13 10:33N 37°34' E 024°06'8 8.2
2014-Nov-13 09:33N 37°41' E 024°11'17 8.3
2014-Nov-13 07:33N 37°52' E 024°28'275 7.9
2014-Nov-11 20:31N 40°56' E 028°52'4 0.3
2014-Nov-11 07:33N 40°58' E 028°56'  
2014-Nov-06 00:31N 40°56' E 029°01'2 2.1
2014-Nov-05 23:33N 40°55' E 029°03'5 5.1
2014-Nov-05 22:33N 40°53' E 029°09'1 1.4
2014-Nov-05 21:28N 40°52' E 029°11'0 0.0
2014-Nov-05 20:28N 40°52' E 029°11'0 0.0
2014-Nov-05 19:28N 40°52' E 029°11'0 0.0
2014-Nov-05 18:28N 40°52' E 029°11'0 0.0
2014-Nov-05 17:28N 40°52' E 029°11'0 0.0
2014-Nov-05 16:28N 40°52' E 029°11'0 0.0
2014-Nov-05 15:22N 40°52' E 029°11'0 0.0
2014-Nov-05 14:33N 40°52' E 029°11'0 0.0
2014-Nov-05 13:32N 40°52' E 029°11'0 0.0
2014-Nov-05 12:33N 40°52' E 029°11'7 7.5
2014-Nov-05 11:33N 40°46' E 029°16'11 8.8
2014-Nov-05 10:18N 40°45' E 029°31'  
Track history (hours):
 
Tides and Currents Weather Stations Pressure Air Temp Water Temp Dewpoint Dewpoint Depression Visibility Wind Speed Wind Dir Waves Ship Positions

Lady Nur

Last reported at 2014-Nov-13 10:33 UTC. Time now 2014-Nov-24 20:10 UTC.
Position N 37°34' E 024°06'.
Warning: this ship's position is 11 days out of date.

Length 82 m; draft 5.5 m.

Type: Cargo ship. MMSI: 373237000.

Date/timePositionNaut miles runAvg speedWind from/ knotsBaromVisibWave heightAir tempDewpointWater temp
2014-Nov-13 10:33N 37°34' E 024°06'8 8.2
2014-Nov-13 09:33N 37°41' E 024°11'17 8.3
2014-Nov-13 07:33N 37°52' E 024°28'275 7.9
2014-Nov-11 20:31N 40°56' E 028°52'4 0.3
2014-Nov-11 07:33N 40°58' E 028°56'  
2014-Nov-06 00:31N 40°56' E 029°01'2 2.1
2014-Nov-05 23:33N 40°55' E 029°03'5 5.1
2014-Nov-05 22:33N 40°53' E 029°09'1 1.4
2014-Nov-05 21:28N 40°52' E 029°11'0 0.0
2014-Nov-05 20:28N 40°52' E 029°11'0 0.0
2014-Nov-05 19:28N 40°52' E 029°11'0 0.0
2014-Nov-05 18:28N 40°52' E 029°11'0 0.0
2014-Nov-05 17:28N 40°52' E 029°11'0 0.0
2014-Nov-05 16:28N 40°52' E 029°11'0 0.0
2014-Nov-05 15:22N 40°52' E 029°11'0 0.0
2014-Nov-05 14:33N 40°52' E 029°11'0 0.0
2014-Nov-05 13:32N 40°52' E 029°11'0 0.0
2014-Nov-05 12:33N 40°52' E 029°11'7 7.5
2014-Nov-05 11:33N 40°46' E 029°16'11 8.8
2014-Nov-05 10:18N 40°45' E 029°31'  

Dump ship's entire track history